createdAt,value
2023-05-15T00:00:19.251Z,0.00
2023-05-15T00:01:20.936Z,0.00
2023-05-15T00:02:20.701Z,0.00
2023-05-15T00:02:32.361Z,0.00
2023-05-15T00:03:32.888Z,0.00
2023-05-15T00:04:33.364Z,0.00
2023-05-15T00:05:33.946Z,0.00
2023-05-15T00:06:34.736Z,0.00
2023-05-15T00:07:35.165Z,0.00
2023-05-15T00:08:35.605Z,0.00
2023-05-15T00:09:36.164Z,0.00
2023-05-15T00:10:36.818Z,0.00
2023-05-15T00:11:37.203Z,0.00
2023-05-15T00:12:38.086Z,0.00
2023-05-15T00:13:38.826Z,0.00
2023-05-15T00:14:39.487Z,0.00
2023-05-15T00:15:40.356Z,0.00
2023-05-15T00:16:41.358Z,0.00
2023-05-15T00:17:41.824Z,0.00
2023-05-15T00:18:42.486Z,0.00
2023-05-15T00:19:43.515Z,0.00
2023-05-15T00:20:43.451Z,0.00
2023-05-15T00:21:44.286Z,0.00
2023-05-15T00:22:44.347Z,0.00
2023-05-15T00:23:45.135Z,0.00
2023-05-15T00:24:45.793Z,0.00
2023-05-15T00:25:46.515Z,0.00
2023-05-15T00:26:47.438Z,0.00
2023-05-15T00:27:47.484Z,0.00
2023-05-15T00:28:48.428Z,0.00
2023-05-15T00:29:49.012Z,0.00
2023-05-15T00:30:49.524Z,0.00
2023-05-15T00:31:50.166Z,0.00
2023-05-15T00:32:50.949Z,0.00
2023-05-15T00:33:51.369Z,0.00
2023-05-15T00:34:00.060Z,0.00
2023-05-15T00:35:00.610Z,0.00
2023-05-15T00:36:01.097Z,0.00
2023-05-15T00:37:01.616Z,0.00
2023-05-15T00:38:02.082Z,0.00
2023-05-15T00:39:02.381Z,0.00
2023-05-15T00:40:02.925Z,0.00
2023-05-15T00:41:03.343Z,0.00
2023-05-15T00:42:04.166Z,0.00
2023-05-15T00:43:04.686Z,0.00
2023-05-15T00:44:05.178Z,0.00
2023-05-15T00:45:06.262Z,0.00
2023-05-15T00:46:05.736Z,0.00
2023-05-15T00:47:06.361Z,0.00
2023-05-15T00:48:06.840Z,0.00
2023-05-15T00:49:07.049Z,0.00
2023-05-15T00:50:07.974Z,0.00
2023-05-15T00:51:11.408Z,0.00
2023-05-15T00:52:09.616Z,0.00
2023-05-15T00:53:10.167Z,0.00
2023-05-15T00:54:11.035Z,0.00
2023-05-15T00:55:11.736Z,0.00
2023-05-15T00:56:12.449Z,0.00
2023-05-15T00:57:14.005Z,0.00
2023-05-15T00:58:13.800Z,0.00
2023-05-15T00:59:14.278Z,0.00
2023-05-15T01:00:15.078Z,0.00
2023-05-15T01:01:15.126Z,0.00
2023-05-15T01:02:15.885Z,0.00
2023-05-15T01:03:16.553Z,0.00
2023-05-15T01:04:18.157Z,0.00
2023-05-15T01:05:17.918Z,0.00
2023-05-15T01:05:27.268Z,0.00
2023-05-15T01:06:27.706Z,0.00
2023-05-15T01:07:28.603Z,0.00
2023-05-15T01:08:29.534Z,0.00
2023-05-15T01:09:30.210Z,0.00
2023-05-15T01:10:30.916Z,0.00
2023-05-15T01:11:30.891Z,0.00
2023-05-15T01:12:31.617Z,0.00
2023-05-15T01:13:32.260Z,0.00
2023-05-15T01:14:32.635Z,0.00
2023-05-15T01:15:33.583Z,0.00
2023-05-15T01:16:34.201Z,0.00
2023-05-15T01:17:34.509Z,0.00
2023-05-15T01:18:35.297Z,0.00
2023-05-15T01:19:36.006Z,0.00
2023-05-15T01:20:36.798Z,0.00
2023-05-15T01:21:37.569Z,0.00
2023-05-15T01:22:38.125Z,0.00
2023-05-15T01:23:38.200Z,0.00
2023-05-15T01:24:38.882Z,0.00
2023-05-15T01:25:39.409Z,0.00
2023-05-15T01:26:39.609Z,0.00
2023-05-15T01:27:40.153Z,0.00
2023-05-15T01:28:40.683Z,0.00
2023-05-15T01:29:41.184Z,0.00
2023-05-15T01:30:41.711Z,0.00
2023-05-15T01:31:42.243Z,0.00
2023-05-15T01:32:42.963Z,0.00
2023-05-15T01:33:43.525Z,0.00
2023-05-15T01:34:44.050Z,0.00
2023-05-15T01:35:44.618Z,0.00
2023-05-15T01:36:45.524Z,0.00
2023-05-15T01:36:54.583Z,0.00
2023-05-15T01:37:55.506Z,0.00
2023-05-15T01:38:55.539Z,0.00
2023-05-15T01:39:56.354Z,0.00
2023-05-15T01:40:57.299Z,0.00
2023-05-15T01:41:57.869Z,0.00
2023-05-15T01:42:58.405Z,0.00
2023-05-15T01:43:59.146Z,0.00
2023-05-15T01:44:59.753Z,0.00
2023-05-15T01:46:00.615Z,0.00
2023-05-15T01:47:01.197Z,0.00
2023-05-15T01:48:01.865Z,0.00
2023-05-15T01:49:02.621Z,0.00
2023-05-15T01:50:02.625Z,0.00
2023-05-15T01:51:03.378Z,0.00
2023-05-15T01:52:04.123Z,0.00
2023-05-15T01:53:04.712Z,0.00
2023-05-15T01:54:05.459Z,0.00
2023-05-15T01:55:05.508Z,0.00
2023-05-15T01:56:06.029Z,0.00
2023-05-15T01:57:06.887Z,0.00
2023-05-15T01:58:07.473Z,0.00
2023-05-15T01:59:07.722Z,0.00
2023-05-15T02:00:08.250Z,0.00
2023-05-15T02:01:08.896Z,0.00
2023-05-15T02:02:09.508Z,0.00
2023-05-15T02:03:10.206Z,0.00
2023-05-15T02:04:10.686Z,0.00
2023-05-15T02:05:11.582Z,0.00
2023-05-15T02:06:12.048Z,0.00
2023-05-15T02:07:12.615Z,0.00
2023-05-15T02:08:13.142Z,0.00
2023-05-15T02:09:13.667Z,0.00
2023-05-15T02:10:14.153Z,0.00
2023-05-15T02:10:24.829Z,0.00
2023-05-15T02:11:24.936Z,0.00
2023-05-15T02:12:25.580Z,0.00
2023-05-15T02:13:26.149Z,0.00
2023-05-15T02:14:26.648Z,0.00
2023-05-15T02:15:27.442Z,0.00
2023-05-15T02:16:28.118Z,0.00
2023-05-15T02:17:28.158Z,0.00
2023-05-15T02:18:29.030Z,0.00
2023-05-15T02:19:29.012Z,0.00
2023-05-15T02:20:30.065Z,0.00
2023-05-15T02:21:29.743Z,0.00
2023-05-15T02:22:30.436Z,0.00
2023-05-15T02:23:31.354Z,0.00
2023-05-15T02:24:31.983Z,0.00
2023-05-15T02:25:33.671Z,0.00
2023-05-15T02:26:33.431Z,0.00
2023-05-15T02:27:34.035Z,0.00
2023-05-15T02:28:35.814Z,0.00
2023-05-15T02:29:35.320Z,0.00
2023-05-15T02:30:35.911Z,0.00
2023-05-15T02:31:36.508Z,0.00
2023-05-15T02:32:37.021Z,0.00
2023-05-15T02:33:37.068Z,0.00
2023-05-15T02:34:37.909Z,0.00
2023-05-15T02:35:38.579Z,0.00
2023-05-15T02:36:39.129Z,0.00
2023-05-15T02:37:39.649Z,0.00
2023-05-15T02:38:40.020Z,0.00
2023-05-15T02:39:40.546Z,0.00
2023-05-15T02:40:41.061Z,0.00
2023-05-15T02:40:50.823Z,0.00
2023-05-15T02:41:50.812Z,0.05
2023-05-15T02:42:52.456Z,0.05
2023-05-15T02:43:52.001Z,0.05
2023-05-15T02:44:52.479Z,0.05
2023-05-15T02:45:53.064Z,0.05
2023-05-15T02:46:53.648Z,0.05
2023-05-15T02:47:54.324Z,0.05
2023-05-15T02:48:54.325Z,0.05
2023-05-15T02:49:55.115Z,0.05
2023-05-15T02:50:55.949Z,0.09
2023-05-15T02:51:56.750Z,0.09
2023-05-15T02:52:57.410Z,0.14
2023-05-15T02:53:58.112Z,0.18
2023-05-15T02:54:58.882Z,0.14
2023-05-15T02:55:59.624Z,0.14
2023-05-15T02:56:59.670Z,0.18
2023-05-15T02:58:00.347Z,0.27
2023-05-15T02:59:01.259Z,0.27
2023-05-15T03:00:01.363Z,0.31
2023-05-15T03:01:01.492Z,0.36
2023-05-15T03:02:02.031Z,0.36
2023-05-15T03:03:02.198Z,0.45
2023-05-15T03:04:02.340Z,0.58
2023-05-15T03:05:02.543Z,0.68
2023-05-15T03:06:03.191Z,0.81
2023-05-15T03:07:03.797Z,0.90
2023-05-15T03:08:04.396Z,1.03
2023-05-15T03:09:04.931Z,1.12
2023-05-15T03:10:05.602Z,1.30
2023-05-15T03:11:06.351Z,1.53
2023-05-15T03:12:07.068Z,1.80
2023-05-15T03:12:16.220Z,1.85
2023-05-15T03:13:16.544Z,2.20
2023-05-15T03:14:17.359Z,2.57
2023-05-15T03:15:18.091Z,2.92
2023-05-15T03:16:19.104Z,3.19
2023-05-15T03:17:19.470Z,3.64
2023-05-15T03:18:19.879Z,4.32
2023-05-15T03:19:20.242Z,5.09
2023-05-15T03:20:20.466Z,5.94
2023-05-15T03:24:17.222Z,10.35
2023-05-15T03:25:17.985Z,11.61
2023-05-15T03:26:18.095Z,12.96
2023-05-15T03:27:18.867Z,14.76
2023-05-15T03:28:19.592Z,16.92
2023-05-15T03:29:20.242Z,19.80
2023-05-15T03:30:20.974Z,22.32
2023-05-15T03:31:21.839Z,24.84
2023-05-15T03:32:22.472Z,27.90
2023-05-15T03:33:22.937Z,31.14
2023-05-15T03:34:23.664Z,35.10
2023-05-15T03:35:24.102Z,38.16
2023-05-15T03:36:24.022Z,42.66
2023-05-15T03:37:24.769Z,49.32
2023-05-15T03:38:25.271Z,56.88
2023-05-15T03:39:25.456Z,62.64
2023-05-15T03:40:26.038Z,68.76
2023-05-15T03:41:26.310Z,74.52
2023-05-15T03:42:27.785Z,80.64
2023-05-15T03:43:27.453Z,88.92
2023-05-15T03:44:27.976Z,96.48
2023-05-15T03:45:28.775Z,105.12
2023-05-15T05:37:27.725Z,3847.68
2023-05-15T05:38:27.678Z,3732.48
2023-05-15T05:39:28.053Z,3571.20
2023-05-15T05:40:28.845Z,3962.88
2023-05-15T05:41:29.365Z,3824.64
2023-05-15T05:42:29.915Z,3525.12
2023-05-15T05:43:30.571Z,3663.36
2023-05-15T05:44:31.150Z,4147.20
2023-05-15T05:45:31.642Z,4101.12
2023-05-15T05:50:15.508Z,3962.88
2023-05-15T05:51:16.237Z,4055.04
2023-05-15T05:52:17.064Z,4654.08
2023-05-15T05:53:17.651Z,5137.92
2023-05-15T05:54:18.517Z,4515.84
2023-05-15T05:55:19.171Z,4262.40
2023-05-15T05:56:19.937Z,4677.12
2023-05-15T05:57:20.243Z,4861.44
2023-05-15T05:58:25.475Z,4884.48
2023-05-15T05:59:21.314Z,4953.60
2023-05-15T06:00:21.826Z,5368.32
2023-05-15T06:01:22.456Z,5852.16
2023-05-15T06:02:23.444Z,5575.68
2023-05-15T06:03:23.130Z,5713.92
2023-05-15T06:04:23.653Z,5437.44
2023-05-15T06:05:24.442Z,5483.52
2023-05-15T06:06:24.867Z,5414.40
2023-05-15T06:07:25.259Z,5137.92
2023-05-15T06:08:25.819Z,5276.16
2023-05-15T06:08:34.486Z,5230.08
2023-05-15T06:09:34.943Z,4861.44
2023-05-15T06:10:35.556Z,4884.48
2023-05-15T06:11:36.095Z,5022.72
2023-05-15T06:12:36.976Z,5045.76
2023-05-15T06:13:37.484Z,5276.16
2023-05-15T06:14:37.997Z,5644.80
2023-05-15T06:15:38.537Z,5713.92
2023-05-15T06:16:39.206Z,5644.80
2023-05-15T06:17:39.739Z,5621.76
2023-05-15T06:18:40.246Z,5829.12
2023-05-15T06:19:40.768Z,5760.00
2023-05-15T06:20:41.341Z,5898.24
2023-05-15T06:21:41.958Z,5598.72
2023-05-15T06:22:42.515Z,5852.16
2023-05-15T06:23:43.131Z,6635.52
2023-05-15T06:24:43.828Z,6635.52
2023-05-15T06:25:44.440Z,6819.84
2023-05-15T06:26:45.037Z,7142.40
2023-05-15T06:27:45.619Z,6635.52
2023-05-15T06:28:46.194Z,5990.40
2023-05-15T06:29:46.671Z,6635.52
2023-05-15T06:30:47.223Z,7096.32
2023-05-15T06:31:47.753Z,6036.48
2023-05-15T06:32:48.618Z,5230.08
2023-05-15T06:33:49.270Z,5667.84
2023-05-15T06:34:49.783Z,5898.24
2023-05-15T06:35:50.539Z,5898.24
2023-05-15T06:36:51.094Z,6036.48
2023-05-15T06:37:52.574Z,6681.60
2023-05-15T06:38:52.398Z,6589.44
2023-05-15T06:39:00.997Z,6589.44
2023-05-15T06:40:01.524Z,6082.56
2023-05-15T06:41:02.164Z,5760.00
2023-05-15T06:42:02.771Z,5852.16
2023-05-15T06:43:03.659Z,5875.20
2023-05-15T06:44:04.207Z,6451.20
2023-05-15T06:45:04.774Z,7188.48
2023-05-15T06:46:05.366Z,7464.96
2023-05-15T06:47:06.188Z,7879.68
2023-05-15T06:48:06.553Z,8248.32
2023-05-15T06:49:07.024Z,8386.56
2023-05-15T06:50:07.573Z,8432.64
2023-05-15T06:51:08.067Z,8801.28
2023-05-15T06:52:08.626Z,9077.76
2023-05-15T06:53:09.122Z,9216.00
2023-05-15T06:54:09.634Z,9400.32
2023-05-15T06:55:10.268Z,9354.24
2023-05-15T06:56:10.826Z,9446.40
2023-05-15T06:57:11.423Z,9354.24
2023-05-15T06:58:11.624Z,9169.92
2023-05-15T06:59:12.193Z,8570.88
2023-05-15T07:00:12.729Z,8156.16
2023-05-15T07:01:13.384Z,8156.16
2023-05-15T07:02:14.053Z,8570.88
2023-05-15T07:03:14.523Z,7649.28
2023-05-15T07:04:57.859Z,6635.52
2023-05-15T07:05:58.416Z,6405.12
2023-05-15T07:06:58.994Z,6819.84
2023-05-15T07:08:00.068Z,8248.32
2023-05-15T07:08:59.574Z,9262.08
2023-05-15T07:10:00.563Z,9630.72
2023-05-15T07:10:09.234Z,9676.80
2023-05-15T07:11:09.825Z,9630.72
2023-05-15T07:12:10.322Z,8755.20
2023-05-15T07:13:10.695Z,8386.56
2023-05-15T07:14:11.273Z,7925.76
2023-05-15T07:15:11.856Z,7188.48
2023-05-15T07:16:12.376Z,6865.92
2023-05-15T07:17:12.651Z,6543.36
2023-05-15T07:18:13.419Z,5575.68
2023-05-15T07:19:14.001Z,4677.12
2023-05-15T07:20:14.533Z,4400.64
2023-05-15T07:21:15.293Z,4677.12
2023-05-15T07:22:15.891Z,5437.44
2023-05-15T07:23:16.480Z,5184.00
2023-05-15T07:24:17.054Z,4884.48
2023-05-15T07:25:17.710Z,5783.04
2023-05-15T07:26:28.733Z,6128.64
2023-05-15T07:27:18.926Z,5806.08
2023-05-15T07:28:19.510Z,5022.72
2023-05-15T07:29:20.186Z,4331.52
2023-05-15T07:30:20.832Z,3916.80
2023-05-15T07:31:21.393Z,3525.12
2023-05-15T07:32:21.650Z,3294.72
2023-05-15T07:33:22.546Z,3340.80
2023-05-15T07:34:23.143Z,3225.60
2023-05-15T07:35:23.923Z,3087.36
2023-05-15T07:36:24.325Z,3110.40
2023-05-15T07:37:25.268Z,3317.76
2023-05-15T07:38:25.951Z,3778.56
2023-05-15T07:39:26.588Z,4170.24
2023-05-15T07:40:27.008Z,4446.72
2023-05-15T07:41:27.172Z,4654.08
2023-05-15T07:41:35.893Z,4631.04
2023-05-15T07:42:36.394Z,4792.32
2023-05-15T07:43:37.012Z,5068.80
2023-05-15T07:44:37.748Z,5253.12
2023-05-15T07:45:38.342Z,5345.28
2023-05-15T07:46:39.317Z,5322.24
2023-05-15T07:47:39.818Z,5414.40
2023-05-15T07:48:40.531Z,6036.48
2023-05-15T07:49:41.036Z,6359.04
2023-05-15T07:50:41.916Z,6543.36
2023-05-15T07:51:42.882Z,6727.68
2023-05-15T07:52:43.786Z,6958.08
2023-05-15T07:53:44.468Z,7234.56
2023-05-15T07:54:45.459Z,7418.88
2023-05-15T07:55:46.622Z,7372.80
2023-05-15T07:56:46.118Z,7142.40
2023-05-15T07:57:53.386Z,7280.64
2023-05-15T07:58:47.379Z,7603.20
2023-05-15T07:59:47.859Z,8064.00
2023-05-15T08:00:47.856Z,8616.96
2023-05-15T08:01:48.661Z,8801.28
2023-05-15T08:02:49.444Z,8985.60
2023-05-15T08:03:50.093Z,9031.68
2023-05-15T08:04:50.623Z,9169.92
2023-05-15T08:05:50.901Z,9169.92
2023-05-15T08:06:51.608Z,9216.00
2023-05-15T08:07:52.157Z,9308.16
2023-05-15T08:08:52.422Z,9492.48
2023-05-15T08:09:52.490Z,9584.64
2023-05-15T08:10:52.840Z,9861.12
2023-05-15T08:11:53.694Z,10183.68
2023-05-15T08:12:54.162Z,10506.24
2023-05-15T08:13:54.741Z,11059.20
2023-05-15T08:14:21.344Z,11197.44
2023-05-15T08:15:15.030Z,11796.48
2023-05-15T08:16:13.221Z,11980.80
2023-05-15T08:17:13.478Z,11750.40
2023-05-15T08:18:14.237Z,12072.96
2023-05-15T08:19:14.984Z,13455.36
2023-05-15T08:20:15.655Z,13916.16
2023-05-15T08:21:16.411Z,12994.56
2023-05-15T08:22:17.368Z,13271.04
2023-05-15T08:23:17.398Z,11013.12
2023-05-15T08:24:18.191Z,10967.04
2023-05-15T08:25:18.513Z,10874.88
2023-05-15T08:26:19.070Z,11151.36
2023-05-15T08:27:24.445Z,11427.84
2023-05-15T08:28:20.505Z,11566.08
2023-05-15T08:29:23.717Z,11289.60
2023-05-15T08:30:22.266Z,10275.84
2023-05-15T08:32:06.807Z,8939.52
2023-05-15T08:33:07.759Z,8110.08
2023-05-15T08:34:08.182Z,7925.76
2023-05-15T08:35:08.612Z,8432.64
2023-05-15T08:36:09.538Z,7879.68
2023-05-15T08:37:12.637Z,8248.32
2023-05-15T08:38:10.210Z,9123.84
2023-05-15T08:39:12.086Z,10368.00
2023-05-15T08:40:11.693Z,10091.52
2023-05-15T08:41:14.270Z,9262.08
2023-05-15T08:42:12.016Z,9031.68
2023-05-15T08:43:12.036Z,8663.04
2023-05-15T08:44:12.065Z,8110.08
2023-05-15T08:45:12.716Z,7925.76
2023-05-15T08:46:13.559Z,8386.56
2023-05-15T08:47:14.125Z,9031.68
2023-05-15T08:47:23.780Z,9077.76
2023-05-15T08:48:24.573Z,9123.84
2023-05-15T08:49:25.033Z,9077.76
2023-05-15T08:50:25.694Z,9538.56
2023-05-15T08:51:26.614Z,11105.28
2023-05-15T08:52:28.299Z,11658.24
2023-05-15T08:53:28.289Z,12533.76
2023-05-15T08:54:28.552Z,16312.32
2023-05-15T08:55:29.527Z,19630.08
2023-05-15T08:56:30.130Z,24698.88
2023-05-15T08:57:30.280Z,27832.32
2023-05-15T08:58:31.080Z,25436.16
2023-05-15T08:59:31.815Z,27463.68
2023-05-15T09:00:32.281Z,23132.16
2023-05-15T09:01:32.980Z,17233.92
2023-05-15T09:02:33.457Z,16680.96
2023-05-15T09:03:34.149Z,17510.40
2023-05-15T09:04:34.590Z,13455.36
2023-05-15T09:05:35.678Z,11750.40
2023-05-15T09:06:35.908Z,11473.92
2023-05-15T09:07:36.691Z,11473.92
2023-05-15T09:08:37.414Z,11980.80
2023-05-15T09:09:38.140Z,12994.56
2023-05-15T09:10:38.799Z,13916.16
2023-05-15T09:11:39.450Z,14929.92
2023-05-15T09:12:39.540Z,16957.44
2023-05-15T09:13:40.290Z,19169.28
2023-05-15T09:14:40.839Z,19445.76
2023-05-15T09:15:41.444Z,19537.92
2023-05-15T09:16:42.194Z,19169.28
2023-05-15T09:17:43.170Z,18524.16
2023-05-15T09:18:43.772Z,17326.08
2023-05-15T09:19:44.593Z,17418.24
2023-05-15T09:19:53.257Z,16957.44
2023-05-15T09:20:56.061Z,15022.08
2023-05-15T09:21:54.575Z,14376.96
2023-05-15T09:22:55.467Z,13639.68
2023-05-15T09:23:56.381Z,12718.08
2023-05-15T09:24:57.351Z,12257.28
2023-05-15T09:25:57.997Z,12533.76
2023-05-15T09:26:58.044Z,13824.00
2023-05-15T09:27:58.607Z,15667.20
2023-05-15T09:28:59.164Z,18247.68
2023-05-15T09:29:59.820Z,21657.60
2023-05-15T09:33:31.642Z,23592.96
2023-05-15T09:34:31.730Z,22394.88
2023-05-15T09:35:32.383Z,22763.52
2023-05-15T09:36:44.918Z,21473.28
2023-05-15T09:37:45.553Z,21749.76
2023-05-15T09:38:46.166Z,23408.64
2023-05-15T09:39:46.881Z,23040.00
2023-05-15T09:40:47.457Z,20736.00
2023-05-15T09:41:48.208Z,17786.88
2023-05-15T09:42:48.236Z,15390.72
2023-05-15T09:43:48.845Z,13271.04
2023-05-15T09:44:49.445Z,12165.12
2023-05-15T09:45:50.152Z,12810.24
2023-05-15T09:46:50.752Z,13271.04
2023-05-15T09:47:51.545Z,13916.16
2023-05-15T09:48:51.573Z,14376.96
2023-05-15T09:49:01.221Z,14653.44
2023-05-15T09:50:02.163Z,16680.96
2023-05-15T09:51:02.756Z,17510.40
2023-05-15T09:52:03.706Z,18892.80
2023-05-15T09:53:03.764Z,20828.16
2023-05-15T09:54:04.302Z,22855.68
2023-05-15T09:55:05.007Z,23592.96
2023-05-15T09:56:05.328Z,24883.20
2023-05-15T09:57:05.967Z,29306.88
2023-05-15T09:58:06.661Z,29675.52
2023-05-15T09:59:07.241Z,28569.60
2023-05-15T10:00:07.337Z,26726.40
2023-05-15T10:01:08.247Z,30965.76
2023-05-15T10:02:08.690Z,27279.36
2023-05-15T10:03:09.486Z,23961.60
2023-05-15T10:04:10.132Z,20643.84
2023-05-15T10:05:10.917Z,19630.08
2023-05-15T10:06:11.835Z,20920.32
2023-05-15T10:07:12.503Z,22026.24
2023-05-15T10:08:13.245Z,25620.48
2023-05-15T10:09:13.831Z,50503.68
2023-05-15T10:10:14.556Z,24330.24
2023-05-15T10:11:15.227Z,37785.60
2023-05-15T10:12:15.784Z,37785.60
2023-05-15T10:13:16.482Z,26910.72
2023-05-15T10:14:16.613Z,38891.52
2023-05-15T10:15:16.840Z,54927.36
2023-05-15T10:16:17.500Z,54558.72
2023-05-15T10:17:18.125Z,55664.64
2023-05-15T10:18:18.687Z,52715.52
2023-05-15T10:19:57.797Z,55296.00
2023-05-15T10:20:51.188Z,27832.32
2023-05-15T10:21:51.980Z,28938.24
2023-05-15T10:22:52.642Z,20643.84
2023-05-15T10:23:53.267Z,38338.56
2023-05-15T10:24:53.545Z,37048.32
2023-05-15T10:25:54.397Z,50872.32
2023-05-15T10:26:55.137Z,50872.32
2023-05-15T10:27:56.063Z,54190.08
2023-05-15T10:28:56.853Z,22210.56
2023-05-15T10:29:57.463Z,19906.56
2023-05-15T10:30:58.222Z,17602.56
2023-05-15T10:31:58.563Z,17971.20
2023-05-15T10:32:58.615Z,19906.56
2023-05-15T10:33:59.459Z,23224.32
2023-05-15T10:34:59.541Z,37601.28
2023-05-15T10:36:00.464Z,50135.04
2023-05-15T10:37:01.393Z,54927.36
2023-05-15T10:38:02.287Z,54927.36
2023-05-15T10:39:03.254Z,54190.08
2023-05-15T10:40:04.019Z,54558.72
2023-05-15T10:41:16.650Z,51240.96
2023-05-15T10:42:05.284Z,43315.20
2023-05-15T10:43:05.692Z,47923.20
2023-05-15T10:44:06.491Z,49766.40
2023-05-15T10:45:07.158Z,42762.24
2023-05-15T10:46:07.255Z,43868.16
2023-05-15T10:47:07.972Z,34467.84
2023-05-15T10:48:08.664Z,52715.52
2023-05-15T10:49:09.038Z,56770.56
2023-05-15T10:50:09.620Z,39075.84
2023-05-15T10:51:11.179Z,48291.84
2023-05-15T10:52:10.574Z,56770.56
2023-05-15T10:52:21.333Z,57139.20
2023-05-15T10:53:21.050Z,27648.00
2023-05-15T10:54:21.333Z,29306.88
2023-05-15T10:55:21.985Z,49397.76
2023-05-15T10:56:22.082Z,48291.84
2023-05-15T10:57:22.524Z,55296.00
2023-05-15T10:58:22.518Z,57139.20
2023-05-15T10:59:22.952Z,56401.92
2023-05-15T11:00:24.177Z,55664.64
2023-05-15T11:01:23.814Z,53821.44
2023-05-15T11:02:25.043Z,48291.84
2023-05-15T11:03:26.056Z,46264.32
2023-05-15T11:04:25.434Z,47923.20
2023-05-15T11:05:26.082Z,46080.00
2023-05-15T11:06:26.053Z,46264.32
2023-05-15T11:07:26.763Z,45158.40
2023-05-15T11:08:27.489Z,50872.32
2023-05-15T11:09:28.189Z,48291.84
2023-05-15T11:10:28.526Z,44605.44
2023-05-15T11:11:29.353Z,34283.52
2023-05-15T11:12:30.063Z,49029.12
2023-05-15T11:13:31.007Z,43130.88
2023-05-15T11:14:31.747Z,23500.80
2023-05-15T11:15:32.670Z,53084.16
2023-05-15T11:16:32.837Z,48291.84
2023-05-15T11:17:33.547Z,48291.84
2023-05-15T11:18:34.288Z,50503.68
2023-05-15T11:19:34.987Z,53084.16
2023-05-15T11:20:37.080Z,49029.12
2023-05-15T11:21:36.228Z,47185.92
2023-05-15T11:22:36.873Z,47554.56
2023-05-15T11:23:37.529Z,47185.92
2023-05-15T11:24:38.206Z,46632.96
2023-05-15T11:25:38.820Z,46448.64
2023-05-15T11:25:47.504Z,46080.00
2023-05-15T11:26:48.343Z,47923.20
2023-05-15T11:27:48.968Z,49397.76
2023-05-15T11:28:49.636Z,52346.88
2023-05-15T11:29:50.400Z,22947.84
2023-05-15T11:30:50.515Z,21565.44
2023-05-15T11:31:51.227Z,50872.32
2023-05-15T11:32:51.578Z,53084.16
2023-05-15T11:33:52.504Z,53084.16
2023-05-15T11:34:52.211Z,52346.88
2023-05-15T11:35:52.790Z,47923.20
2023-05-15T11:36:53.487Z,49766.40
2023-05-15T11:37:54.060Z,46264.32
2023-05-15T11:38:54.691Z,47554.56
2023-05-15T11:39:55.403Z,48291.84
2023-05-15T11:40:56.200Z,47923.20
2023-05-15T11:41:59.149Z,48291.84
2023-05-15T11:42:57.679Z,48660.48
2023-05-15T11:43:58.343Z,47923.20
2023-05-15T11:44:59.163Z,50135.04
2023-05-15T11:45:59.911Z,53084.16
2023-05-15T11:47:00.685Z,50503.68
2023-05-15T11:48:01.195Z,52346.88
2023-05-15T11:49:01.276Z,51609.60
2023-05-15T11:50:01.990Z,51978.24
2023-05-15T11:51:02.738Z,47001.60
2023-05-15T11:52:03.675Z,51240.96
2023-05-15T11:53:04.418Z,53084.16
2023-05-15T11:54:06.334Z,51240.96
2023-05-15T11:55:05.565Z,49397.76
2023-05-15T11:56:05.827Z,45711.36
2023-05-15T11:57:06.348Z,43499.52
2023-05-15T11:57:15.972Z,45158.40
2023-05-15T11:58:16.364Z,44236.80
2023-05-15T11:59:17.197Z,47554.56
2023-05-15T12:00:17.791Z,44236.80
2023-05-15T12:01:18.777Z,44605.44
2023-05-15T12:02:18.797Z,45158.40
2023-05-15T12:03:19.644Z,22394.88
2023-05-15T12:04:20.503Z,24883.20
2023-05-15T12:05:20.915Z,38891.52
2023-05-15T12:06:21.982Z,47923.20
2023-05-15T12:07:21.895Z,49766.40
2023-05-15T12:08:22.647Z,48660.48
2023-05-15T12:09:23.596Z,49766.40
2023-05-15T12:10:24.687Z,36679.68
2023-05-15T12:11:25.546Z,24330.24
2023-05-15T12:12:25.886Z,48291.84
2023-05-15T12:13:26.549Z,47554.56
2023-05-15T12:14:27.269Z,49029.12
2023-05-15T12:15:27.983Z,48291.84
2023-05-15T12:16:28.745Z,48660.48
2023-05-15T12:17:29.274Z,19722.24
2023-05-15T12:18:29.472Z,24883.20
2023-05-15T12:19:30.381Z,25067.52
2023-05-15T12:20:31.118Z,18155.52
2023-05-15T12:21:31.731Z,16865.28
2023-05-15T12:22:32.462Z,20920.32
2023-05-15T12:23:32.521Z,53084.16
2023-05-15T12:24:33.096Z,57507.84
2023-05-15T12:25:34.096Z,58613.76
2023-05-15T12:26:34.248Z,56033.28
2023-05-15T12:26:41.848Z,56401.92
2023-05-15T12:27:42.668Z,56033.28
2023-05-15T12:28:43.787Z,59351.04
2023-05-15T12:29:43.583Z,49397.76
2023-05-15T12:30:44.307Z,43130.88
2023-05-15T12:31:45.128Z,58613.76
2023-05-15T12:32:45.780Z,61931.52
2023-05-15T12:33:46.368Z,57507.84
2023-05-15T12:34:47.043Z,48291.84
2023-05-15T12:35:47.913Z,56401.92
2023-05-15T12:36:47.886Z,56401.92
2023-05-15T12:37:48.609Z,55296.00
2023-05-15T12:38:49.282Z,56033.28
2023-05-15T12:39:49.814Z,53452.80
2023-05-15T12:40:50.456Z,51609.60
2023-05-15T12:41:51.235Z,34099.20
2023-05-15T12:42:51.619Z,56033.28
2023-05-15T12:43:51.611Z,55664.64
2023-05-15T12:44:52.121Z,55296.00
2023-05-15T12:45:52.675Z,54927.36
2023-05-15T12:46:52.883Z,55664.64
2023-05-15T12:47:53.531Z,56770.56
2023-05-15T12:48:54.161Z,55664.64
2023-05-15T12:49:54.164Z,56033.28
2023-05-15T12:50:55.057Z,56770.56
2023-05-15T12:51:55.921Z,55664.64
2023-05-15T12:52:56.869Z,55664.64
2023-05-15T12:53:57.621Z,56401.92
2023-05-15T12:54:59.619Z,55664.64
2023-05-15T12:55:59.466Z,57139.20
2023-05-15T12:57:01.967Z,56401.92
2023-05-15T12:58:00.784Z,57139.20
2023-05-15T12:59:00.792Z,56770.56
2023-05-15T12:59:09.468Z,56033.28
2023-05-15T13:00:10.109Z,55664.64
2023-05-15T13:01:11.033Z,47923.20
2023-05-15T13:02:11.531Z,15851.52
2023-05-15T13:03:12.252Z,46448.64
2023-05-15T13:04:12.197Z,55296.00
2023-05-15T13:05:12.710Z,54927.36
2023-05-15T13:06:13.384Z,54558.72
2023-05-15T13:07:13.581Z,55664.64
2023-05-15T13:08:14.304Z,53084.16
2023-05-15T13:09:15.188Z,56033.28
2023-05-15T13:10:15.826Z,55664.64
2023-05-15T13:11:16.436Z,56401.92
2023-05-15T13:12:17.248Z,57139.20
2023-05-15T13:13:17.436Z,57139.20
2023-05-15T13:14:18.344Z,56770.56
2023-05-15T13:15:19.136Z,57507.84
2023-05-15T13:16:20.087Z,57139.20
2023-05-15T13:17:20.477Z,56401.92
2023-05-15T13:18:21.410Z,56033.28
2023-05-15T13:19:23.112Z,55664.64
2023-05-15T13:20:22.827Z,56401.92
2023-05-15T13:21:23.770Z,55664.64
2023-05-15T13:22:27.994Z,56401.92
2023-05-15T13:23:24.122Z,40919.04
2023-05-15T13:24:24.986Z,55296.00
2023-05-15T13:25:25.661Z,55296.00
2023-05-15T13:26:26.452Z,54927.36
2023-05-15T13:27:27.161Z,53821.44
2023-05-15T13:28:28.040Z,53452.80
2023-05-15T13:29:28.872Z,51609.60
2023-05-15T13:30:30.328Z,52346.88
2023-05-15T13:31:30.082Z,52715.52
2023-05-15T13:32:30.804Z,52715.52
2023-05-15T13:33:31.378Z,51240.96
2023-05-15T13:33:40.986Z,51609.60
2023-05-15T13:34:41.624Z,53084.16
2023-05-15T13:35:42.308Z,53821.44
2023-05-15T13:36:42.688Z,53084.16
2023-05-15T13:37:42.777Z,52346.88
2023-05-15T13:38:42.916Z,52715.52
2023-05-15T13:39:44.771Z,51609.60
2023-05-15T13:41:15.547Z,50503.68
2023-05-15T13:42:15.710Z,51240.96
2023-05-15T13:43:16.696Z,50135.04
2023-05-15T13:44:17.606Z,48660.48
2023-05-15T13:45:18.536Z,49766.40
2023-05-15T13:46:19.257Z,50503.68
2023-05-15T13:47:19.821Z,51609.60
2023-05-15T13:48:20.558Z,51609.60
2023-05-15T13:49:21.272Z,51240.96
2023-05-15T13:50:21.889Z,50872.32
2023-05-15T13:51:22.548Z,51609.60
2023-05-15T13:52:23.239Z,51978.24
2023-05-15T13:53:23.919Z,50503.68
2023-05-15T13:54:24.660Z,49397.76
2023-05-15T13:55:25.313Z,50503.68
2023-05-15T13:56:26.090Z,52346.88
2023-05-15T13:57:27.090Z,49397.76
2023-05-15T13:58:27.725Z,50872.32
2023-05-15T13:59:28.357Z,48291.84
2023-05-15T14:00:28.942Z,47185.92
2023-05-15T14:01:29.850Z,49029.12
2023-05-15T14:02:30.608Z,48660.48
2023-05-15T14:03:31.760Z,47554.56
2023-05-15T14:04:32.220Z,45711.36
2023-05-15T14:05:32.876Z,46817.28
2023-05-15T14:06:33.451Z,47185.92
2023-05-15T14:07:34.403Z,48660.48